Latest Coastal Weather Observations for Cocos Island

IDW60701

Issued at 7:52 pm WST Friday 29 July 2016 (issued every 10 minutes, with the page automatically refreshed every 10 minutes)

About coastal observations | Map of coastal stations | Coastal observations for WA | Marine services | Other Formats
Station Details ID: 200284 Name: COCOS ISLAND AIRPORT Lat: -12.19 Lon: 96.83 Height: 3.0 m
Data from the previous 72 hours. | See also: Recent months at Cocos Island
Date/Time
WST
Temp
°C
Wind Pressure Rain since
9am
mm
Weather Cloud Vis
km
Sea
Height
m
Swell
Dir  Spd
kts
Gust
kts
hPa Trend Height
m
Period
s
Dir
29/07:30pm 26.4 SE 17 21 1012.7 - 0.0 - Partly cloudy 10 - - - -
29/07:00pm 27.1 SE 17 21 1012.6 - 0.0 - Partly cloudy 10 - - - -
29/06:30pm 27.3 SE 17 22 1012.3 - 0.0 - Partly cloudy 10 - - - -
29/06:00pm 27.5 SE 19 23 1012.1 - 0.0 - Partly cloudy - - - - -
29/05:30pm 27.6 SE 18 25 1012.1 - 0.0 - Partly cloudy - - - - -
29/05:00pm 27.9 SE 16 21 1011.7 - 0.0 - Cloudy - - - - -
29/04:30pm 28.1 SE 15 21 1011.9 - 0.0 Drizzle Partly cloudy 10 - - - -
29/04:00pm 28.2 SE 16 21 1012.0 - 0.0 - Mostly clear 10 - - - -
29/03:30pm 27.9 SE 17 21 1012.3 - 0.0 - Mostly clear 10 - - - -
29/03:00pm 28.2 SE 17 21 1012.8 - 0.0 - Mostly clear 10 - - - -
29/02:30pm 28.0 SE 16 22 1013.0 - 0.0 - Partly cloudy 10 - - - -
29/02:00pm 27.9 SE 17 21 1013.3 - 0.0 - Cloudy 10 - - - -
29/01:30pm 28.2 SE 16 19 1013.9 - 0.0 - Mostly clear 10 - - - -
29/01:00pm 28.0 SE 17 22 1014.2 - 0.0 - Mostly clear 10 - - - -
29/12:30pm 28.0 SE 18 23 1014.3 - 0.0 - Mostly clear 10 - - - -
29/12:00pm 27.7 ESE 17 22 1014.4 - 0.0 - Mostly clear 10 - - - -
29/11:30am 27.8 SE 16 20 1014.5 - 0.0 - Mostly clear 10 - - - -
29/11:00am 27.6 SE 16 20 1014.5 - 0.2 - Partly cloudy 10 - - - -
29/10:30am 27.4 SE 15 19 1014.5 - 0.2 - Partly cloudy 10 - - - -
29/10:00am 27.2 SE 15 18 1014.4 - 0.2 - Mostly clear 10 - - - -
29/09:30am 27.0 SE 14 19 1014.1 - 0.2 - Mostly clear 10 - - - -
29/09:00am 26.8 SE 13 18 1013.8 - 0.2 - Partly cloudy 10 - - - -
29/08:30am 26.4 SE 15 19 1013.6 - 0.2 - Partly cloudy 10 - - - -
29/08:00am 26.3 ESE 13 17 1013.1 - 0.2 - Mostly clear - - - - -
29/07:30am 26.4 ESE 13 19 1013.0 - 0.2 - Partly cloudy - - - - -
29/07:00am 26.5 ESE 14 19 1012.9 - 0.2 - Partly cloudy - - - - -
29/06:30am 26.5 ESE 14 18 1012.8 - 0.2 - Partly cloudy - - - - -
29/06:00am 26.5 ESE 14 17 1012.4 - 0.2 - Partly cloudy - - - - -
29/05:30am 26.5 ESE 13 18 1012.3 - 0.2 - Partly cloudy - - - - -
29/05:00am 26.6 ESE 14 17 1012.1 - 0.2 - Cloudy - - - - -
29/04:30am 26.7 ESE 14 16 1012.3 - 0.2 - Partly cloudy - - - - -
29/04:00am 26.6 ESE 13 16 1012.4 - 0.2 - Partly cloudy - - - - -
29/03:30am 26.6 SE 14 18 1012.4 - 0.2 - Partly cloudy - - - - -
29/03:00am 26.6 SE 12 15 1012.7 - 0.2 - Partly cloudy 10 - - - -
29/02:30am 26.6 SE 13 18 1013.1 - 0.2 - Partly cloudy - - - - -
29/02:00am 26.7 ESE 11 14 1013.2 - 0.2 - Mostly clear - - - - -
29/01:30am 26.7 ESE 9 13 1013.4 - 0.2 - Partly cloudy - - - - -
29/01:00am 26.8 ESE 10 16 1013.7 - 0.2 - Partly cloudy - - - - -
29/12:30am 26.8 ESE 14 18 1013.7 - 0.2 - Partly cloudy - - - - -
29/12:00am 26.9 ESE 13 16 1013.6 - 0.2 - Partly cloudy - - - - -
 
Date/Time
WST
Temp
°C
Wind Pressure Rain since
9am
mm
Weather Cloud Vis
km
Sea
Height
m
Swell
Dir  Spd
kts
Gust
kts
hPa Trend Height
m
Period
s
Dir
28/11:30pm 26.9 ESE 10 15 1013.6 - 0.2 - Partly cloudy - - - - -
28/11:00pm 26.9 ESE 11 15 1013.6 - 0.2 - Cloudy - - - - -
28/10:30pm 26.9 ESE 11 14 1013.6 - 0.2 - Partly cloudy - - - - -
28/10:08pm 26.9 ESE 11 15 1013.5 - 0.2 - Partly cloudy - - - - -
28/10:00pm 26.8 ESE 10 15 1013.4 - 0.2 - Partly cloudy - - - - -
28/09:54pm 26.8 ESE 10 13 1013.4 - 0.2 - Partly cloudy 5 - - - -
28/09:30pm 26.8 ESE 9 12 1013.2 - 0.2 - - 10 - - - -
28/09:00pm 26.8 ESE 9 13 1013.1 - 0.2 - - 10 - - - -
28/08:30pm 26.9 ESE 10 15 1012.8 - 0.2 - Partly cloudy 10 - - - -
28/08:00pm 27.0 ESE 9 12 1012.4 - 0.2 - Mostly clear 10 - - - -
28/07:30pm 27.2 ESE 10 14 1012.2 - 0.2 - Partly cloudy 10 - - - -
28/07:00pm 27.3 ESE 9 14 1011.9 - 0.2 - Partly cloudy 10 - - - -
28/06:30pm 27.6 ESE 11 16 1011.7 - 0.2 - Partly cloudy 10 - - - -
28/06:00pm 28.1 E 9 13 1011.4 - 0.2 - Partly cloudy 10 - - - -
28/05:30pm 28.6 E 11 15 1011.2 - 0.2 - Partly cloudy 10 - - - -
28/05:00pm 28.5 E 12 16 1010.8 - 0.2 - Partly cloudy 10 - - - -
28/04:30pm 28.6 E 11 16 1010.9 - 0.2 - Mostly clear 10 - - - -
28/04:00pm 29.0 E 11 15 1011.2 - 0.2 - Mostly clear 10 - - - -
28/03:30pm 29.0 E 12 16 1011.3 - 0.2 - Mostly clear 10 - - - -
28/03:00pm 29.0 E 11 15 1011.7 - 0.2 - Mostly clear 10 - - - -
28/02:30pm 28.9 E 11 15 1012.1 - 0.2 - Mostly clear 10 - - - -
28/02:00pm 29.1 E 11 14 1012.3 - 0.2 - Partly cloudy 10 - - - -
28/01:30pm 28.9 E 13 17 1012.7 - 0.2 - Mostly clear 10 - - - -
28/01:00pm 28.8 E 12 16 1012.9 - 0.2 - Mostly clear 10 - - - -
28/12:30pm 28.8 E 10 16 1013.2 - 0.2 - Mostly clear 10 - - - -
28/12:00pm 28.8 E 11 15 1013.5 - 0.2 - Mostly clear 10 - - - -
28/11:30am 27.8 ESE 11 14 1013.4 - 0.0 - Mostly clear 10 - - - -
28/11:00am 27.5 ESE 11 16 1013.6 - 0.6 - Cloudy 10 - - - -
28/10:30am 26.5 SSE 7 10 1013.9 - 0.6 - Partly cloudy 10 - - - -
28/10:00am 26.8 SE 12 16 1013.8 - 0.2 - Mostly clear 10 - - - -
28/09:30am 26.5 SE 12 17 1013.7 - 0.2 - Partly cloudy 10 - - - -
28/09:00am 26.6 SE 12 14 1013.3 - 0.2 - Mostly clear 10 - - - -
28/08:30am 26.4 SE 11 14 1013.1 - 0.2 - Partly cloudy 10 - - - -
28/08:00am 26.1 SE 12 14 1012.9 - 0.2 - Mostly cloudy 10 - - - -
28/07:30am 26.3 SE 12 14 1012.8 - 0.0 - Partly cloudy 10 - - - -
28/07:00am 26.4 SE 12 14 1012.6 - 0.0 - Partly cloudy 10 - - - -
28/06:30am 26.4 ESE 10 13 1012.5 - 0.0 - Partly cloudy 10 - - - -
28/06:00am 26.5 ESE 11 13 1012.3 - 0.0 - Partly cloudy 10 - - - -
28/05:47am 26.5 ESE 11 14 1012.3 - 0.0 - Partly cloudy 10 - - - -
28/05:30am 26.5 ESE 9 13 1012.3 - 0.0 - Partly cloudy 10 - - - -
28/05:23am 26.4 ESE 9 13 1012.3 - 0.0 - Partly cloudy 10 - - - -
28/05:00am 26.3 ESE 9 13 1012.0 - 0.0 - Mostly clear 10 - - - -
28/04:30am 26.5 ESE 11 15 1012.1 - 0.0 - Partly cloudy 10 - - - -
28/04:27am 26.6 ESE 10 13 1012.1 - 0.0 - Partly cloudy 10 - - - -
28/04:22am 26.6 ESE 10 13 1012.2 - 0.0 - Partly cloudy 10 - - - -
28/04:11am 26.5 ESE 10 13 1012.2 - 0.0 - Partly cloudy 3 - - - -
28/04:08am 26.5 ESE 10 13 1012.3 - 0.0 - Partly cloudy 3 - - - -
28/04:02am 26.5 ESE 10 14 1012.3 - 0.0 - Partly cloudy 10 - - - -
28/04:00am 26.5 ESE 10 14 1012.3 - 0.0 - Partly cloudy 10 - - - -
28/03:43am 26.5 ESE 9 11 1012.4 - 0.0 - Partly cloudy 5 - - - -
28/03:30am 26.5 ESE 9 11 1012.5 - 0.0 - Partly cloudy 10 - - - -
28/03:00am 26.6 ESE 9 13 1012.7 - 0.0 - Partly cloudy 10 - - - -
28/02:30am 26.5 ESE 8 11 1012.8 - 0.0 - Partly cloudy 10 - - - -
28/02:00am 26.5 E 9 12 1012.7 - 0.0 - Mostly cloudy 10 - - - -
28/01:30am 26.5 ESE 8 11 1013.1 - 0.0 - - 10 - - - -
28/01:00am 26.5 ESE 7 11 1013.1 - 0.0 - Partly cloudy 10 - - - -
28/12:30am 26.6 ESE 7 11 1013.1 - 0.0 - Partly cloudy 10 - - - -
28/12:00am 26.5 ESE 7 10 1013.1 - 0.0 - Partly cloudy 10 - - - -
 
Date/Time
WST
Temp
°C
Wind Pressure Rain since
9am
mm
Weather Cloud Vis
km
Sea
Height
m
Swell
Dir  Spd
kts
Gust
kts
hPa Trend Height
m
Period
s
Dir
27/11:30pm 26.6 ESE 7 10 1013.1 - 0.0 - Partly cloudy 10 - - - -
27/11:00pm 26.6 ESE 7 9 1013.3 - 0.0 - - 10 - - - -
27/10:30pm 26.7 ESE 7 10 1013.0 - 0.0 - - 10 - - - -
27/10:00pm 26.7 E 8 11 1012.8 - 0.0 - - 10 - - - -
27/09:30pm 26.8 ESE 7 9 1012.6 - 0.0 - Partly cloudy 10 - - - -
27/09:00pm 26.9 ESE 7 10 1012.2 - 0.0 - Partly cloudy 10 - - - -
27/08:30pm 26.9 ESE 6 8 1012.1 - 0.0 - Partly cloudy 10 - - - -
27/08:13pm 26.9 ESE 7 9 1011.9 - 0.0 - Partly cloudy 10 - - - -
27/08:00pm 27.0 ESE 7 10 1011.7 - 0.0 - Mostly clear 5 - - - -
27/07:54pm 27.0 ESE 6 8 1011.7 - 0.0 - Partly cloudy 5 - - - -
27/07:30pm 27.1 ESE 7 9 1011.5 - 0.0 - Partly cloudy 10 - - - -
27/07:00pm 27.6 E 9 12 1011.2 - 0.0 - Partly cloudy 10 - - - -
27/06:30pm 28.1 E 10 14 1011.0 - 0.0 - Partly cloudy 10 - - - -
27/06:00pm 28.3 ENE 10 14 1010.8 - 0.0 - Partly cloudy 10 - - - -
27/05:30pm 28.7 E 10 12 1010.6 - 0.0 - Partly cloudy 10 - - - -
27/05:07pm 29.1 ENE 9 12 1010.5 - 0.0 - Partly cloudy 10 - - - -
27/05:00pm 29.5 E 9 12 1010.4 - 0.0 - Mostly clear 10 - - - -
27/04:33pm 29.2 ENE 10 13 1010.4 - 0.0 - Partly cloudy 6 - - - -
27/04:30pm 29.3 ENE 10 13 1010.4 - 0.0 - Partly cloudy 10 - - - -
27/04:00pm 29.1 E 9 13 1010.5 - 0.0 - Partly cloudy 10 - - - -
27/03:30pm 29.6 ENE 9 13 1010.8 - 0.0 - Partly cloudy 10 - - - -
27/03:00pm 29.6 ENE 10 14 1011.0 - 0.0 - Partly cloudy 10 - - - -
27/02:30pm 29.4 ENE 10 13 1011.4 - 0.0 - Partly cloudy 10 - - - -
27/02:00pm 29.6 ENE 10 13 1011.5 - 0.0 - Cloudy 10 - - - -
27/01:30pm 29.8 ENE 10 14 1011.8 - 0.0 - Partly cloudy 10 - - - -
27/01:00pm 29.7 ENE 10 14 1012.1 - 0.0 - Partly cloudy 10 - - - -
27/12:30pm 29.2 ENE 11 15 1012.3 - 0.0 - Partly cloudy 10 - - - -
27/12:00pm 29.2 ENE 11 15 1012.3 - 0.0 - Mostly clear 10 - - - -
27/11:30am 29.0 ENE 12 15 1012.2 - 0.0 - Mostly clear 10 - - - -
27/11:00am 28.5 ENE 13 17 1012.3 - 2.2 - Mostly clear 10 - - - -
27/10:30am 28.2 ENE 14 17 1012.5 - 2.0 - Mostly clear 10 - - - -
27/10:00am 27.9 ENE 12 16 1012.3 - 2.0 - Mostly clear 10 - - - -
27/09:30am 27.6 ENE 12 16 1012.1 - 2.0 - Mostly clear 10 - - - -
27/08:30am 26.7 ENE 13 17 1011.4 - 2.0 - Mostly clear 10 - - - -
27/08:23am 26.7 ENE 13 17 1011.4 - 2.0 - Partly cloudy 4 - - - -
27/08:00am 26.5 ENE 13 19 1011.1 - 2.0 - Cloudy 10 - - - -
27/07:30am 26.5 ENE 12 15 1011.0 - 2.0 - Partly cloudy 10 - - - -
27/07:00am 26.5 ENE 11 15 1010.8 - 2.0 - Partly cloudy 10 - - - -
27/06:30am 26.5 ENE 13 17 1010.7 - 2.0 - Partly cloudy 10 - - - -
27/06:00am 26.5 ENE 11 15 1010.7 - 2.0 - Partly cloudy 10 - - - -
27/05:30am 26.4 ENE 10 14 1010.6 - 2.0 - - 10 - - - -
27/05:00am 26.6 ENE 12 16 1010.4 - 2.0 - Mostly clear 10 - - - -
27/04:30am 26.6 E 12 16 1010.5 - 2.0 - Partly cloudy 10 - - - -
27/04:00am 26.8 E 14 16 1010.5 - 2.0 - Partly cloudy 10 - - - -
27/03:30am 26.8 E 10 15 1010.7 - 2.0 - Partly cloudy 10 - - - -
27/03:00am 26.7 E 10 13 1011.1 - 2.0 - Partly cloudy 10 - - - -
27/02:30am 26.7 E 12 14 1011.3 - 2.0 - Partly cloudy 10 - - - -
27/02:00am 26.6 E 11 13 1011.4 - 2.0 - Partly cloudy 10 - - - -
27/01:30am 26.6 ENE 11 14 1011.6 - 2.0 - - 10 - - - -
27/01:00am 26.7 E 11 13 1011.8 - 2.0 - - 10 - - - -
27/12:35am 26.5 ENE 11 15 1012.0 - 2.0 - - 10 - - - -
27/12:30am 26.6 ENE 11 14 1012.0 - 2.0 - Partly cloudy 8 - - - -
27/12:16am 26.6 ENE 11 15 1012.0 - 2.0 - Partly cloudy 6 - - - -
27/12:00am 26.5 ENE 10 13 1011.9 - 2.0 - Partly cloudy 10 - - - -
 
Date/Time
WST
Temp
°C
Wind Pressure Rain since
9am
mm
Weather Cloud Vis
km
Sea
Height
m
Swell
Dir  Spd
kts
Gust
kts
hPa Trend Height
m
Period
s
Dir
26/11:30pm 26.6 ENE 12 15 1012.1 - 2.0 - - 10 - - - -
26/11:00pm 26.5 ENE 10 14 1012.1 - 2.0 - Mostly clear 10 - - - -
26/10:30pm 26.6 ENE 12 16 1012.1 - 2.0 - - 10 - - - -
26/10:00pm 26.5 ENE 11 16 1011.9 - 2.0 - Partly cloudy 10 - - - -
26/09:30pm 26.3 ENE 11 15 1011.5 - 2.0 - Partly cloudy 10 - - - -

Other Formats:

Comma delimited format used in spreadsheet applications
http://www.bom.gov.au/fwo/IDW60701/IDW60701.96996.axf

JavaScript Object Notation format (JSON) in row-major order
http://www.bom.gov.au/fwo/IDW60701/IDW60701.96996.json